Time;durP1;ratioP1;P1;durP2;ratioP2;P2;SDS_P1;SDS_P2;PMS_P1;PMS_P2;Temp;Humidity;BMP_temperature;BMP_pressure;BME280_temperature;BME280_humidity;BME280_pressure;Samples;Min_cycle;Max_cycle;Signal;HPM_P1;HPM_P2
2023/08/31 00:01:09;;;;;;;2.17;1.98;;;15.40;99.90;;;;;;5044141;28;20185;-71
2023/08/31 00:03:38;;;;;;;5.07;2.30;;;15.00;99.90;;;;;;5048387;28;20178;-72
2023/08/31 00:06:04;;;;;;;2.75;1.85;;;15.00;99.90;;;;;;5046809;28;20546;-71
2023/08/31 00:08:30;;;;;;;2.38;1.95;;;15.10;99.90;;;;;;5050592;28;20212;-72
2023/08/31 00:11:02;;;;;;;2.63;2.28;;;15.20;99.90;;;;;;5048553;28;20249;-72
2023/08/31 00:13:28;;;;;;;3.60;1.88;;;15.20;99.90;;;;;;5049565;28;20181;-72
2023/08/31 00:15:56;;;;;;;2.60;2.00;;;15.10;99.90;;;;;;5047454;28;20284;-72
2023/08/31 00:18:21;;;;;;;2.22;1.95;;;15.10;99.90;;;;;;5046549;28;21042;-72
2023/08/31 00:20:47;;;;;;;2.20;2.00;;;15.20;99.90;;;;;;5048287;28;20181;-73
2023/08/31 00:23:13;;;;;;;3.30;2.13;;;15.20;99.90;;;;;;5050407;28;20292;-72
2023/08/31 00:25:38;;;;;;;3.20;2.53;;;15.30;99.90;;;;;;5047204;28;20193;-70
2023/08/31 00:28:04;;;;;;;4.67;2.40;;;15.20;99.90;;;;;;5046600;28;20770;-70
2023/08/31 00:30:33;;;;;;;3.03;2.13;;;15.30;99.90;;;;;;5047818;28;20562;-72
2023/08/31 00:33:01;;;;;;;2.50;2.30;;;15.10;99.90;;;;;;5045358;28;20186;-72
2023/08/31 00:35:28;;;;;;;2.30;2.10;;;15.10;99.90;;;;;;5050452;28;20201;-72
2023/08/31 00:37:58;;;;;;;2.67;1.80;;;15.10;99.90;;;;;;5043806;28;20263;-70
2023/08/31 00:40:24;;;;;;;2.50;2.20;;;15.20;99.90;;;;;;5045305;28;20651;-72
2023/08/31 00:42:50;;;;;;;2.40;2.20;;;15.40;99.90;;;;;;5048007;28;20242;-71
2023/08/31 00:45:15;;;;;;;2.30;2.10;;;15.50;99.90;;;;;;5047929;28;20479;-72
2023/08/31 00:47:41;;;;;;;2.20;2.03;;;15.20;99.90;;;;;;5047874;28;20590;-71
2023/08/31 00:50:08;;;;;;;4.57;2.40;;;15.30;99.90;;;;;;5046696;28;20213;-71
2023/08/31 00:52:34;;;;;;;2.95;1.98;;;15.10;99.90;;;;;;5046439;28;20518;-71
2023/08/31 00:55:02;;;;;;;3.88;2.70;;;15.00;99.90;;;;;;5046465;28;20267;-71
2023/08/31 00:57:31;;;;;;;4.55;2.35;;;15.00;99.90;;;;;;5046675;28;20213;-71
2023/08/31 00:59:56;;;;;;;4.45;2.30;;;14.90;99.90;;;;;;5049056;28;20182;-71
2023/08/31 01:02:42;;;;;;;2.23;2.10;;;14.90;99.90;;;;;;5046857;28;20194;-71
2023/08/31 01:05:50;;;;;;;2.78;1.98;;;14.70;99.90;;;;;;5047346;28;20205;-71
2023/08/31 01:08:36;;;;;;;2.25;2.15;;;14.70;99.90;;;;;;4990894;28;20222;-71
2023/08/31 01:11:44;;;;;;;6.00;2.55;;;14.60;99.90;;;;;;5044321;28;20629;-71
2023/08/31 01:14:19;;;;;;;3.30;2.60;;;14.50;99.90;;;;;;5046479;28;20194;-71
2023/08/31 01:16:48;;;;;;;3.70;2.60;;;14.40;99.90;;;;;;5045599;28;20224;-72
2023/08/31 01:19:27;;;;;;;2.97;2.40;;;14.60;99.90;;;;;;5047197;28;20666;-72
2023/08/31 01:21:57;;;;;;;2.63;2.42;;;14.40;99.90;;;;;;5045574;28;20235;-70
2023/08/31 01:24:24;;;;;;;4.05;3.00;;;14.40;99.90;;;;;;5050334;28;20666;-70
2023/08/31 01:26:52;;;;;;;6.03;3.00;;;14.30;99.90;;;;;;5041620;28;20231;-70
2023/08/31 01:29:18;;;;;;;3.28;2.70;;;14.30;99.90;;;;;;5047613;28;20746;-70
2023/08/31 01:31:45;;;;;;;3.00;2.70;;;14.50;99.90;;;;;;5049021;28;20196;-70
2023/08/31 01:34:10;;;;;;;3.30;2.45;;;14.30;99.90;;;;;;5046573;28;20192;-71
2023/08/31 01:36:43;;;;;;;4.20;2.70;;;14.10;99.90;;;;;;5045664;28;20300;-70
2023/08/31 01:39:32;;;;;;;3.55;2.78;;;14.20;99.90;;;;;;5046266;28;20497;-71
2023/08/31 01:42:03;;;;;;;2.90;2.65;;;13.90;99.90;;;;;;5048586;28;20271;-71
2023/08/31 01:44:32;;;;;;;4.78;3.20;;;13.90;99.90;;;;;;5045982;28;20732;-71
2023/08/31 01:47:09;;;;;;;3.22;2.90;;;13.70;99.90;;;;;;5047162;28;20288;-72
2023/08/31 01:49:41;;;;;;;3.55;2.53;;;14.10;99.90;;;;;;5046415;28;20185;-72
2023/08/31 01:52:07;;;;;;;3.42;2.53;;;14.00;99.90;;;;;;5045388;28;20189;-71
2023/08/31 01:54:33;;;;;;;4.63;3.47;;;13.70;99.90;;;;;;5048680;28;20665;-72
2023/08/31 01:56:58;;;;;;;3.27;2.97;;;13.80;99.90;;;;;;5044569;28;20296;-70
2023/08/31 01:59:24;;;;;;;2.80;2.60;;;13.90;99.90;;;;;;5047589;28;20212;-73
2023/08/31 02:01:50;;;;;;;3.07;2.80;;;13.80;99.90;;;;;;5046603;28;20544;-71
2023/08/31 02:04:15;;;;;;;4.20;2.27;;;13.90;99.90;;;;;;5045530;28;20572;-70
2023/08/31 02:06:41;;;;;;;3.17;2.97;;;14.00;99.90;;;;;;5044529;28;20464;-72
2023/08/31 02:09:06;;;;;;;2.63;2.43;;;14.00;99.90;;;;;;5046939;28;20173;-71
2023/08/31 02:11:35;;;;;;;2.97;2.73;;;13.90;99.90;;;;;;5046151;28;20209;-70
2023/08/31 02:14:02;;;;;;;3.15;2.25;;;14.30;99.90;;;;;;5047566;28;20186;-71
2023/08/31 02:16:27;;;;;;;3.22;2.70;;;14.00;99.90;;;;;;5044060;28;20209;-72
2023/08/31 02:18:53;;;;;;;3.73;2.73;;;13.70;99.90;;;;;;5047863;28;20273;-71
2023/08/31 02:21:19;;;;;;;3.03;2.73;;;14.30;99.90;;;;;;5044461;28;20185;-70
2023/08/31 02:23:45;;;;;;;3.33;3.00;;;14.20;99.90;;;;;;5049859;28;20726;-72
2023/08/31 02:26:11;;;;;;;3.63;2.83;;;14.20;99.90;;;;;;5043525;28;20288;-71
2023/08/31 02:28:37;;;;;;;5.85;2.55;;;14.10;99.90;;;;;;5052030;28;20211;-70
2023/08/31 02:31:03;;;;;;;3.17;2.80;;;14.30;99.90;;;;;;5050683;28;20179;-71
2023/08/31 02:33:29;;;;;;;3.20;2.53;;;14.30;99.90;;;;;;5051264;28;20186;-71
2023/08/31 02:35:55;;;;;;;4.10;2.67;;;14.10;99.90;;;;;;5044507;28;20208;-71
2023/08/31 02:38:21;;;;;;;3.55;3.10;;;14.30;99.90;;;;;;5050827;28;20216;-72
2023/08/31 02:40:47;;;;;;;2.50;2.30;;;14.30;99.90;;;;;;5048934;28;20232;-71
2023/08/31 02:43:13;;;;;;;2.20;2.07;;;14.60;99.90;;;;;;5052410;28;20182;-71
2023/08/31 02:45:39;;;;;;;2.80;2.60;;;14.40;99.90;;;;;;5049803;28;20213;-71
2023/08/31 02:48:07;;;;;;;2.37;2.20;;;14.40;99.90;;;;;;5049665;28;20248;-71
2023/08/31 02:50:34;;;;;;;3.33;2.17;;;14.20;99.90;;;;;;5047334;28;20185;-70
2023/08/31 02:53:00;;;;;;;5.20;2.60;;;14.50;99.90;;;;;;5050302;28;20193;-73
2023/08/31 02:55:25;;;;;;;2.80;2.60;;;14.50;99.90;;;;;;5049869;28;20282;-71
2023/08/31 02:57:51;;;;;;;2.80;2.47;;;14.40;99.90;;;;;;5052711;28;20209;-71
2023/08/31 03:00:21;;;;;;;4.13;2.70;;;14.40;99.90;;;;;;5050934;28;20243;-71
2023/08/31 03:02:47;;;;;;;2.58;2.38;;;14.70;99.90;;;;;;5051783;28;20284;-72
2023/08/31 03:05:13;;;;;;;3.05;2.75;;;14.50;99.90;;;;;;5043776;28;20285;-72
2023/08/31 03:07:38;;;;;;;2.50;2.30;;;14.40;99.90;;;;;;5054721;28;20294;-71
2023/08/31 03:10:04;;;;;;;3.00;2.50;;;14.50;99.90;;;;;;5046953;28;20287;-72
2023/08/31 03:12:30;;;;;;;2.95;2.47;;;14.40;99.90;;;;;;5048848;28;20193;-72
2023/08/31 03:14:56;;;;;;;4.60;2.33;;;14.30;99.90;;;;;;5050069;28;20178;-71
2023/08/31 03:17:21;;;;;;;5.60;2.47;;;14.60;99.90;;;;;;5049819;28;20220;-71
2023/08/31 03:19:47;;;;;;;3.00;2.60;;;14.40;99.90;;;;;;5048523;28;20300;-71
2023/08/31 03:22:13;;;;;;;2.97;2.67;;;14.60;99.90;;;;;;5051178;28;20182;-71
2023/08/31 03:24:38;;;;;;;2.17;1.90;;;14.30;99.90;;;;;;5049445;28;20185;-70
2023/08/31 03:27:04;;;;;;;3.77;2.30;;;14.60;99.90;;;;;;5046423;28;20609;-71
2023/08/31 03:29:31;;;;;;;3.13;2.80;;;14.40;99.90;;;;;;5047412;28;20200;-71
2023/08/31 03:31:57;;;;;;;3.70;2.45;;;14.20;99.90;;;;;;5049401;28;20706;-72
2023/08/31 03:34:23;;;;;;;3.13;2.70;;;14.30;99.90;;;;;;5049013;28;20193;-72
2023/08/31 03:36:50;;;;;;;3.40;2.60;;;14.30;99.90;;;;;;5048442;28;20541;-71
2023/08/31 03:39:16;;;;;;;2.60;2.35;;;14.30;99.90;;;;;;5048706;28;20285;-71
2023/08/31 03:41:41;;;;;;;3.33;2.47;;;14.30;99.90;;;;;;5048378;28;20345;-71
2023/08/31 03:44:07;;;;;;;2.60;2.40;;;14.30;99.90;;;;;;5049737;28;20435;-70
2023/08/31 03:46:32;;;;;;;2.80;2.60;;;14.10;99.90;;;;;;5049660;28;20185;-71
2023/08/31 03:48:58;;;;;;;3.33;2.67;;;14.00;99.90;;;;;;5049124;28;20190;-71
2023/08/31 03:51:24;;;;;;;2.80;2.60;;;14.10;99.90;;;;;;5049586;28;20647;-72
2023/08/31 03:53:49;;;;;;;2.70;2.50;;;14.10;99.90;;;;;;5050328;28;20189;-72
2023/08/31 03:56:15;;;;;;;4.00;3.30;;;13.90;99.90;;;;;;5046697;28;20201;-72
2023/08/31 03:58:40;;;;;;;3.00;2.63;;;14.20;99.90;;;;;;5051008;28;20193;-73
2023/08/31 04:01:06;;;;;;;2.50;2.30;;;13.90;99.90;;;;;;5047476;28;20286;-71
2023/08/31 04:03:31;;;;;;;5.30;2.67;;;14.20;99.90;;;;;;5049708;28;20765;-72
2023/08/31 04:05:57;;;;;;;3.10;2.33;;;14.00;99.90;;;;;;5046175;28;20197;-73
2023/08/31 04:08:24;;;;;;;2.88;2.47;;;14.00;99.90;;;;;;5049132;28;20283;-72
2023/08/31 04:10:49;;;;;;;4.70;2.77;;;14.00;99.90;;;;;;5040226;28;20611;-71
2023/08/31 04:13:15;;;;;;;3.03;2.83;;;13.90;99.90;;;;;;5049318;28;20287;-71
2023/08/31 04:15:40;;;;;;;3.50;2.70;;;14.20;99.90;;;;;;5050569;28;20251;-74
2023/08/31 04:18:06;;;;;;;3.40;2.97;;;13.90;99.90;;;;;;5049061;28;20220;-73
2023/08/31 04:20:33;;;;;;;3.20;2.57;;;14.00;99.90;;;;;;5046246;28;20181;-72
2023/08/31 04:22:58;;;;;;;3.65;2.95;;;13.90;99.90;;;;;;5048783;28;20184;-72
2023/08/31 04:25:24;;;;;;;2.70;2.50;;;14.10;99.90;;;;;;5046822;28;20272;-73
2023/08/31 04:27:50;;;;;;;3.00;2.70;;;13.70;99.90;;;;;;5050349;28;20197;-71
2023/08/31 04:30:15;;;;;;;3.20;2.90;;;13.90;99.90;;;;;;5048267;28;20173;-72
2023/08/31 04:32:42;;;;;;;3.03;2.83;;;14.00;99.90;;;;;;5038939;28;20181;-71
2023/08/31 04:35:08;;;;;;;3.88;2.90;;;13.80;99.90;;;;;;5048235;28;20178;-72
2023/08/31 04:37:33;;;;;;;4.70;3.17;;;13.80;99.90;;;;;;5047397;28;20233;-72
2023/08/31 04:39:59;;;;;;;3.97;3.63;;;13.80;99.90;;;;;;5045052;28;20205;-73
2023/08/31 04:42:25;;;;;;;4.87;2.87;;;13.90;99.90;;;;;;5046112;28;21253;-72
2023/08/31 04:44:50;;;;;;;3.37;3.07;;;13.70;99.90;;;;;;5048603;28;20177;-71
2023/08/31 04:47:16;;;;;;;4.00;2.90;;;13.90;99.90;;;;;;5044547;28;20197;-71
2023/08/31 04:49:42;;;;;;;3.17;2.90;;;13.80;99.90;;;;;;5045411;28;20268;-72
2023/08/31 04:52:08;;;;;;;5.90;3.13;;;13.80;99.90;;;;;;5046188;28;20447;-73
2023/08/31 04:54:34;;;;;;;5.60;3.50;;;14.00;99.90;;;;;;5047439;28;20945;-71
2023/08/31 04:56:59;;;;;;;3.30;3.00;;;13.80;99.90;;;;;;5046025;28;20239;-71
2023/08/31 04:59:25;;;;;;;4.00;3.03;;;13.70;99.90;;;;;;5043385;28;20239;-74
2023/08/31 05:01:50;;;;;;;8.93;2.90;;;13.80;99.90;;;;;;5046760;28;20268;-72
2023/08/31 05:04:16;;;;;;;5.97;3.03;;;13.80;99.90;;;;;;5046657;28;20197;-73
2023/08/31 05:06:41;;;;;;;3.90;3.13;;;13.90;99.90;;;;;;5045409;28;21913;-71
2023/08/31 05:09:08;;;;;;;2.93;2.63;;;13.40;99.90;;;;;;5045304;28;20204;-71
2023/08/31 05:11:33;;;;;;;4.88;3.17;;;13.90;99.90;;;;;;5043619;28;20276;-71
2023/08/31 05:13:59;;;;;;;4.20;2.90;;;14.00;99.90;;;;;;5044104;28;20723;-73
2023/08/31 05:16:24;;;;;;;2.67;2.47;;;14.00;99.90;;;;;;5041485;28;20201;-72
2023/08/31 05:18:50;;;;;;;4.20;3.40;;;13.90;99.90;;;;;;5042337;28;20219;-72
2023/08/31 05:21:16;;;;;;;4.40;3.20;;;14.00;99.90;;;;;;5045551;28;20222;-72
2023/08/31 05:23:41;;;;;;;4.20;3.07;;;13.80;99.90;;;;;;5043693;28;20190;-70
2023/08/31 05:26:07;;;;;;;3.27;2.97;;;13.80;99.90;;;;;;5042579;28;20188;-71
2023/08/31 05:28:33;;;;;;;3.00;2.77;;;14.00;99.90;;;;;;5045932;28;20220;-71
2023/08/31 05:31:02;;;;;;;3.60;2.70;;;14.00;99.90;;;;;;5047461;28;20630;-72
2023/08/31 05:33:28;;;;;;;5.55;2.90;;;14.10;99.90;;;;;;5043255;28;20181;-72
2023/08/31 05:35:54;;;;;;;5.85;3.83;;;14.20;99.90;;;;;;5045000;28;20244;-72
2023/08/31 05:38:20;;;;;;;3.65;3.35;;;14.20;99.90;;;;;;5042558;28;20214;-64
2023/08/31 05:40:46;;;;;;;4.43;3.97;;;14.30;99.90;;;;;;5045124;28;20635;-64
2023/08/31 05:43:15;;;;;;;3.70;3.40;;;14.20;99.90;;;;;;5044834;28;20181;-64
2023/08/31 05:45:41;;;;;;;5.60;4.35;;;14.60;99.90;;;;;;5043692;28;20181;-63
2023/08/31 05:48:07;;;;;;;4.95;3.78;;;14.40;99.90;;;;;;5042791;28;20556;-65
2023/08/31 05:50:33;;;;;;;3.60;3.30;;;14.50;99.90;;;;;;5040067;28;20212;-63
2023/08/31 05:52:59;;;;;;;4.13;3.27;;;14.30;99.90;;;;;;5044483;28;20227;-63
2023/08/31 05:55:25;;;;;;;4.63;3.10;;;14.70;99.90;;;;;;5043417;28;20201;-62
2023/08/31 05:57:50;;;;;;;3.40;2.90;;;14.40;99.90;;;;;;5045599;28;20205;-62
2023/08/31 06:00:17;;;;;;;3.50;3.03;;;14.70;99.90;;;;;;5043436;28;21341;-65
2023/08/31 06:02:47;;;;;;;10.05;8.40;;;14.70;99.90;;;;;;5048353;28;20442;-63
2023/08/31 06:05:13;;;;;;;4.35;3.42;;;14.40;99.90;;;;;;5045473;28;20651;-63
2023/08/31 06:07:39;;;;;;;4.40;4.00;;;14.50;99.90;;;;;;5046821;28;20205;-63
2023/08/31 06:10:05;;;;;;;4.35;3.13;;;14.50;99.90;;;;;;5048754;28;20779;-63
2023/08/31 06:12:31;;;;;;;4.18;3.40;;;14.80;99.90;;;;;;5051501;28;20270;-64
2023/08/31 06:14:58;;;;;;;4.00;3.17;;;14.60;99.90;;;;;;5048001;28;20250;-64
2023/08/31 06:17:24;;;;;;;4.53;3.17;;;14.70;99.90;;;;;;5046836;28;20467;-64
2023/08/31 06:19:49;;;;;;;3.60;3.30;;;15.00;99.90;;;;;;5044844;28;20181;-64
2023/08/31 06:22:15;;;;;;;4.50;3.70;;;14.70;99.90;;;;;;5048966;28;20665;-64
2023/08/31 06:24:42;;;;;;;3.87;3.57;;;14.90;99.90;;;;;;5049831;28;20181;-64
2023/08/31 06:27:07;;;;;;;3.45;3.05;;;14.90;99.90;;;;;;5045246;28;20201;-64
2023/08/31 06:29:33;;;;;;;3.30;3.00;;;14.80;99.90;;;;;;5048945;28;20190;-64
2023/08/31 06:31:58;;;;;;;3.53;3.07;;;15.10;99.90;;;;;;5048587;28;20186;-64
2023/08/31 06:34:24;;;;;;;3.53;3.20;;;15.00;99.90;;;;;;5040550;28;20533;-63
2023/08/31 06:36:50;;;;;;;3.60;2.67;;;15.20;99.90;;;;;;5048812;28;20300;-64
2023/08/31 06:39:15;;;;;;;5.20;3.50;;;15.20;99.90;;;;;;5053516;28;20185;-64
2023/08/31 06:41:41;;;;;;;4.00;3.60;;;15.30;99.90;;;;;;5050536;28;20670;-64
2023/08/31 06:44:07;;;;;;;2.67;2.47;;;15.40;99.90;;;;;;5056437;28;20173;-64
2023/08/31 06:46:37;;;;;;;4.10;2.70;;;15.50;99.90;;;;;;5053495;28;20315;-64
2023/08/31 06:49:07;;;;;;;6.00;3.80;;;15.80;99.90;;;;;;5052098;28;20636;-62
2023/08/31 06:51:33;;;;;;;3.72;2.72;;;16.00;99.90;;;;;;5050575;28;20212;-64
2023/08/31 06:54:05;;;;;;;2.47;2.23;;;16.20;99.90;;;;;;5052761;28;20822;-64
2023/08/31 06:56:34;;;;;;;4.18;2.83;;;16.50;99.90;;;;;;5046899;28;20479;-63
2023/08/31 06:59:00;;;;;;;3.42;2.40;;;16.60;99.90;;;;;;5050311;28;20185;-63
2023/08/31 07:01:27;;;;;;;2.60;2.40;;;17.00;99.90;;;;;;5051884;28;21127;-64
2023/08/31 07:03:53;;;;;;;2.80;2.10;;;17.20;99.90;;;;;;5049896;28;20448;-64
2023/08/31 07:06:18;;;;;;;4.13;2.20;;;18.10;99.90;;;;;;5051175;28;20563;-64
2023/08/31 07:08:45;;;;;;;3.10;2.60;;;18.40;99.90;;;;;;5047157;28;20212;-64
2023/08/31 07:11:11;;;;;;;3.53;2.25;;;18.80;99.90;;;;;;5051522;28;20263;-64
2023/08/31 07:13:39;;;;;;;2.40;2.20;;;18.80;99.90;;;;;;5052585;28;20178;-65
2023/08/31 07:16:05;;;;;;;3.53;1.92;;;19.20;99.90;;;;;;5048174;28;20202;-64
2023/08/31 07:18:31;;;;;;;2.57;1.90;;;18.90;99.90;;;;;;5050411;28;20201;-65
2023/08/31 07:20:57;;;;;;;2.80;2.17;;;18.90;99.90;;;;;;5051702;28;21144;-65
2023/08/31 07:23:23;;;;;;;2.20;1.67;;;18.80;99.90;;;;;;5050576;28;20178;-65
2023/08/31 07:25:48;;;;;;;3.60;2.33;;;18.60;99.90;;;;;;5044961;28;20448;-64
2023/08/31 07:28:14;;;;;;;2.80;2.30;;;19.70;99.90;;;;;;5045632;28;20819;-64
2023/08/31 07:30:40;;;;;;;2.42;2.22;;;19.80;99.90;;;;;;5050285;28;20194;-63
2023/08/31 07:33:07;;;;;;;3.70;2.50;;;21.00;99.90;;;;;;5047924;28;20196;-64
2023/08/31 07:35:32;;;;;;;2.20;1.90;;;22.10;96.20;;;;;;5048851;28;20272;-65
2023/08/31 07:37:58;;;;;;;2.63;2.43;;;23.30;92.80;;;;;;5048063;28;20527;-64
2023/08/31 07:40:25;;;;;;;3.07;2.00;;;23.80;91.10;;;;;;5046976;28;20180;-64
2023/08/31 07:42:51;;;;;;;3.43;1.90;;;24.50;91.10;;;;;;5050082;28;20267;-64
2023/08/31 07:45:17;;;;;;;4.30;2.70;;;26.00;88.50;;;;;;5048002;28;20539;-64
2023/08/31 07:47:42;;;;;;;2.40;2.00;;;27.30;79.40;;;;;;5047180;28;20521;-64
2023/08/31 07:50:09;;;;;;;2.03;1.73;;;28.30;73.80;;;;;;5045548;28;20448;-65
2023/08/31 07:52:34;;;;;;;4.10;1.90;;;29.50;69.20;;;;;;5048379;28;20251;-65
2023/08/31 07:55:01;;;;;;;2.67;2.10;;;30.00;64.50;;;;;;5045584;28;20945;-64
2023/08/31 07:57:27;;;;;;;2.20;2.00;;;30.10;63.00;;;;;;5040147;28;20216;-65
2023/08/31 07:59:53;;;;;;;2.20;1.80;;;31.00;60.40;;;;;;5047384;28;20491;-65
2023/08/31 08:02:18;;;;;;;2.33;1.90;;;30.70;57.40;;;;;;5046978;28;20184;-65
2023/08/31 08:04:46;;;;;;;2.07;1.80;;;31.00;56.00;;;;;;5045758;28;20279;-65
2023/08/31 08:07:11;;;;;;;2.10;1.90;;;32.20;54.90;;;;;;5045465;28;20216;-65
2023/08/31 08:09:37;;;;;;;2.60;1.70;;;32.00;53.10;;;;;;5046729;28;20990;-64
2023/08/31 08:12:03;;;;;;;1.70;1.60;;;31.50;51.10;;;;;;5045967;28;20235;-66
2023/08/31 08:14:29;;;;;;;2.03;1.80;;;32.10;51.30;;;;;;5047700;28;20208;-66
2023/08/31 08:16:55;;;;;;;2.53;2.30;;;32.80;49.10;;;;;;5045790;28;21040;-65
2023/08/31 08:19:24;;;;;;;2.20;1.83;;;32.70;47.70;;;;;;5048008;28;20180;-65
2023/08/31 08:21:53;;;;;;;2.67;2.33;;;32.90;47.20;;;;;;5047845;28;20214;-65
2023/08/31 08:24:19;;;;;;;2.60;2.00;;;33.40;45.50;;;;;;5044670;28;20450;-65
2023/08/31 08:26:44;;;;;;;3.80;2.40;;;34.10;42.60;;;;;;5045870;28;20467;-65
2023/08/31 08:29:10;;;;;;;2.70;2.20;;;33.70;44.00;;;;;;5046350;28;20439;-65
2023/08/31 08:31:36;;;;;;;3.00;1.70;;;35.00;43.50;;;;;;5047403;28;20258;-65
2023/08/31 08:34:03;;;;;;;3.37;2.53;;;34.90;40.10;;;;;;5044845;28;20232;-65
2023/08/31 08:36:29;;;;;;;2.00;1.63;;;34.50;40.30;;;;;;5050697;28;20220;-66
2023/08/31 08:38:54;;;;;;;2.77;2.00;;;33.40;40.80;;;;;;5046667;28;20804;-65
2023/08/31 08:41:23;;;;;;;3.33;2.30;;;33.10;40.50;;;;;;5046614;28;20198;-65
2023/08/31 08:43:53;;;;;;;3.37;2.03;;;32.00;41.10;;;;;;5049338;28;20188;-63
2023/08/31 08:46:19;;;;;;;2.63;1.80;;;30.60;43.70;;;;;;5047225;28;20455;-64
2023/08/31 08:48:47;;;;;;;2.47;1.97;;;30.20;45.10;;;;;;5045451;28;20471;-64
2023/08/31 08:51:13;;;;;;;2.10;1.90;;;29.00;45.50;;;;;;5044565;28;20277;-65
2023/08/31 08:53:43;;;;;;;4.60;2.30;;;27.20;48.20;;;;;;5047157;28;21021;-65
2023/08/31 08:56:09;;;;;;;3.17;1.83;;;25.90;50.80;;;;;;5038024;28;20473;-65
2023/08/31 08:58:34;;;;;;;3.00;2.17;;;25.30;52.60;;;;;;5048330;28;20461;-65
2023/08/31 09:01:02;;;;;;;3.70;2.40;;;25.10;53.30;;;;;;5048047;28;20201;-64
2023/08/31 09:03:27;;;;;;;2.47;2.27;;;24.90;54.20;;;;;;5047549;28;20594;-64
2023/08/31 09:05:53;;;;;;;4.43;1.90;;;24.20;55.40;;;;;;5046184;28;20503;-64
2023/08/31 09:08:26;;;;;;;2.17;1.97;;;23.70;55.90;;;;;;5048420;28;20212;-64
2023/08/31 09:10:52;;;;;;;3.20;2.20;;;23.60;57.70;;;;;;5046042;28;20699;-65
2023/08/31 09:13:18;;;;;;;2.80;1.70;;;23.50;57.70;;;;;;5049090;28;20489;-64
2023/08/31 09:15:46;;;;;;;1.70;1.60;;;23.20;58.80;;;;;;5047647;28;20432;-64
2023/08/31 09:18:32;;;;;;;2.30;2.10;;;22.80;59.90;;;;;;5046391;28;20220;-65
2023/08/31 09:20:58;;;;;;;2.72;2.53;;;22.50;62.50;;;;;;5048077;28;20435;-65
2023/08/31 09:23:24;;;;;;;3.97;2.47;;;22.30;63.70;;;;;;5048739;28;20181;-64
2023/08/31 09:25:53;;;;;;;3.03;2.70;;;22.30;64.40;;;;;;5045078;28;20452;-66
2023/08/31 09:28:26;;;;;;;2.55;2.30;;;22.10;64.80;;;;;;5047508;28;20498;-63
2023/08/31 09:30:53;;;;;;;4.97;2.33;;;22.10;64.30;;;;;;5047236;28;20185;-64
2023/08/31 09:33:22;;;;;;;3.43;2.37;;;22.00;67.20;;;;;;5046735;28;20795;-64
2023/08/31 09:35:53;;;;;;;4.03;2.42;;;21.80;68.30;;;;;;5041734;28;20507;-64
2023/08/31 09:38:19;;;;;;;5.28;1.92;;;21.50;69.00;;;;;;5046147;28;20198;-64
2023/08/31 09:40:45;;;;;;;1.95;1.85;;;21.40;69.70;;;;;;5044108;28;20181;-64
2023/08/31 09:43:11;;;;;;;3.22;2.00;;;21.30;69.60;;;;;;5046363;28;20177;-64
2023/08/31 09:45:38;;;;;;;2.93;1.90;;;21.10;71.40;;;;;;5046934;28;20658;-64
2023/08/31 09:48:04;;;;;;;2.60;2.30;;;21.00;68.20;;;;;;5046222;28;20201;-64
2023/08/31 09:50:32;;;;;;;4.40;2.60;;;20.90;67.40;;;;;;5042391;28;20192;-64
2023/08/31 09:53:03;;;;;;;4.40;1.90;;;20.80;67.70;;;;;;5046584;28;20247;-64
2023/08/31 09:55:32;;;;;;;4.53;2.17;;;20.90;65.10;;;;;;5043672;28;20557;-64
2023/08/31 09:58:00;;;;;;;3.95;2.65;;;20.90;66.50;;;;;;5042278;28;20205;-64
2023/08/31 10:00:27;;;;;;;2.95;2.00;;;21.00;64.30;;;;;;5046645;28;20187;-65
2023/08/31 10:02:56;;;;;;;4.38;1.85;;;21.00;62.00;;;;;;5046757;28;20186;-64
2023/08/31 10:05:22;;;;;;;2.08;1.88;;;21.20;60.90;;;;;;5044498;28;20204;-64
2023/08/31 10:07:49;;;;;;;2.20;2.00;;;21.30;60.30;;;;;;5045588;28;20567;-64
2023/08/31 10:10:16;;;;;;;3.38;2.17;;;21.40;61.70;;;;;;5044216;28;20205;-64
2023/08/31 10:12:44;;;;;;;2.10;1.70;;;21.10;60.40;;;;;;5046498;28;20264;-63
2023/08/31 10:15:10;;;;;;;2.97;1.77;;;21.00;60.50;;;;;;5045898;28;20547;-64
2023/08/31 10:17:36;;;;;;;5.13;2.90;;;21.10;60.80;;;;;;5044324;28;20662;-63
2023/08/31 10:20:02;;;;;;;3.75;2.40;;;21.30;61.30;;;;;;5044003;28;20197;-64
2023/08/31 10:22:30;;;;;;;2.58;1.80;;;21.70;62.10;;;;;;5045472;28;20178;-64
2023/08/31 10:25:06;;;;;;;2.80;2.35;;;21.60;59.90;;;;;;5046673;28;20260;-64
2023/08/31 10:27:50;;;;;;;3.80;2.00;;;22.20;62.80;;;;;;5045218;28;20205;-65
2023/08/31 10:30:22;;;;;;;3.47;3.00;;;21.20;62.60;;;;;;5060530;28;20327;-66
2023/08/31 10:33:09;;;;;;;5.90;2.60;;;21.00;63.00;;;;;;5042033;28;20731;-63
2023/08/31 10:35:52;;;;;;;3.08;2.30;;;20.80;64.30;;;;;;5046754;28;20192;-66
2023/08/31 10:38:32;;;;;;;3.75;2.10;;;20.90;64.90;;;;;;5045666;28;20296;-64
2023/08/31 10:41:21;;;;;;;2.15;1.55;;;20.80;65.00;;;;;;5044765;28;20200;-65
2023/08/31 10:43:51;;;;;;;3.47;2.90;;;20.60;65.90;;;;;;5043356;28;20250;-65
2023/08/31 10:46:32;;;;;;;3.33;2.10;;;20.80;67.80;;;;;;5046702;28;20190;-64
2023/08/31 10:49:14;;;;;;;3.28;1.90;;;20.80;66.20;;;;;;5047101;28;20705;-66
2023/08/31 10:51:48;;;;;;;3.45;2.63;;;21.10;65.00;;;;;;5047396;28;20223;-65
2023/08/31 10:54:20;;;;;;;2.90;2.13;;;21.20;63.60;;;;;;5047946;28;20180;-66
2023/08/31 10:57:00;;;;;;;4.07;2.00;;;21.40;63.10;;;;;;5046436;28;20217;-66
2023/08/31 10:59:40;;;;;;;2.78;2.47;;;21.60;62.40;;;;;;5047815;28;20193;-65
2023/08/31 11:02:06;;;;;;;5.60;3.20;;;21.60;61.00;;;;;;5047915;28;20181;-65
2023/08/31 11:05:11;;;;;;;3.80;2.70;;;21.60;61.30;;;;;;5045748;28;20722;-65
2023/08/31 11:07:38;;;;;;;3.25;2.30;;;21.50;64.00;;;;;;5050195;28;20971;-64
2023/08/31 11:10:17;;;;;;;2.92;2.40;;;21.30;63.90;;;;;;5048882;28;20193;-64
2023/08/31 11:12:45;;;;;;;3.45;2.25;;;21.10;64.70;;;;;;5047056;28;20201;-64
2023/08/31 11:15:13;;;;;;;5.80;3.13;;;21.00;65.40;;;;;;5048641;28;20284;-65
2023/08/31 11:17:40;;;;;;;5.68;2.65;;;20.90;66.70;;;;;;5046401;28;20209;-65
2023/08/31 11:20:09;;;;;;;3.45;2.40;;;20.70;68.10;;;;;;5043313;28;20185;-65
2023/08/31 11:22:38;;;;;;;4.43;3.20;;;20.70;68.20;;;;;;5048876;28;20173;-64
2023/08/31 11:25:04;;;;;;;3.35;2.35;;;20.60;69.50;;;;;;5052449;28;21154;-64
2023/08/31 11:27:30;;;;;;;8.05;3.00;;;20.70;69.10;;;;;;5046519;28;20452;-65
2023/08/31 11:29:55;;;;;;;4.73;2.20;;;21.20;67.30;;;;;;5049919;28;20877;-65
2023/08/31 11:32:27;;;;;;;4.43;1.97;;;21.40;66.20;;;;;;5050530;28;20197;-63
2023/08/31 11:34:52;;;;;;;5.43;2.50;;;21.40;65.80;;;;;;5048141;28;20250;-64
2023/08/31 11:37:22;;;;;;;2.73;2.30;;;21.50;66.30;;;;;;5050035;28;20217;-63
2023/08/31 11:39:51;;;;;;;4.40;2.22;;;21.80;67.40;;;;;;5049052;28;20308;-65
2023/08/31 11:42:18;;;;;;;4.30;2.13;;;21.90;64.80;;;;;;5044595;28;20188;-65
2023/08/31 11:44:46;;;;;;;4.53;2.53;;;22.00;64.80;;;;;;5049246;28;20548;-69
2023/08/31 11:47:12;;;;;;;4.90;2.20;;;21.90;64.70;;;;;;5050337;28;20212;-65
2023/08/31 11:49:40;;;;;;;3.35;2.30;;;22.00;67.60;;;;;;5052006;28;20452;-68
2023/08/31 11:52:06;;;;;;;2.97;2.70;;;22.00;65.30;;;;;;5050318;28;20190;-66
2023/08/31 11:54:32;;;;;;;3.17;2.30;;;22.00;66.40;;;;;;5051665;28;20193;-65
2023/08/31 11:56:57;;;;;;;2.97;2.47;;;22.00;67.60;;;;;;5046071;28;20961;-65
2023/08/31 11:59:23;;;;;;;2.60;2.20;;;22.20;65.90;;;;;;5050508;28;20189;-65
2023/08/31 12:01:50;;;;;;;4.23;3.33;;;22.00;63.80;;;;;;5048562;28;20655;-67
2023/08/31 12:04:17;;;;;;;3.20;2.20;;;21.90;66.30;;;;;;5047440;28;20881;-68
2023/08/31 12:06:47;;;;;;;7.88;7.07;;;21.80;63.70;;;;;;5044167;28;20440;-66
2023/08/31 12:09:13;;;;;;;3.73;3.40;;;21.80;65.30;;;;;;5046878;28;20230;-65
2023/08/31 12:11:38;;;;;;;4.40;2.13;;;22.60;66.70;;;;;;5040223;28;20482;-64
2023/08/31 12:14:21;;;;;;;5.00;2.40;;;22.00;65.00;;;;;;5050586;28;20271;-65
2023/08/31 12:16:47;;;;;;;2.78;2.03;;;22.00;63.90;;;;;;5046797;28;20212;-67
2023/08/31 12:19:13;;;;;;;4.15;2.70;;;21.90;62.70;;;;;;5053471;28;20170;-66
2023/08/31 12:21:40;;;;;;;3.70;2.80;;;21.90;63.30;;;;;;5045739;28;20196;-65
2023/08/31 12:24:06;;;;;;;4.53;2.05;;;22.00;62.70;;;;;;5052966;28;20190;-64
2023/08/31 12:26:31;;;;;;;4.00;2.17;;;22.00;62.80;;;;;;5046578;28;20181;-65
2023/08/31 12:28:57;;;;;;;5.67;2.50;;;22.10;64.20;;;;;;5049025;28;20974;-65
2023/08/31 12:31:24;;;;;;;2.43;2.23;;;22.00;64.40;;;;;;5049912;28;20707;-67
2023/08/31 12:33:49;;;;;;;4.25;3.17;;;21.80;64.00;;;;;;5047738;28;20448;-66
2023/08/31 12:36:15;;;;;;;4.33;3.93;;;21.70;65.50;;;;;;5050985;28;20204;-68
2023/08/31 12:38:41;;;;;;;5.40;4.17;;;21.60;66.40;;;;;;5048960;28;20237;-67
2023/08/31 12:41:07;;;;;;;2.40;2.20;;;21.60;66.00;;;;;;5045204;28;20267;-66
2023/08/31 12:43:34;;;;;;;3.60;2.50;;;21.50;64.80;;;;;;5049595;28;20233;-66
2023/08/31 12:45:59;;;;;;;2.15;1.85;;;21.50;66.20;;;;;;5050036;28;21332;-67
2023/08/31 12:48:26;;;;;;;3.20;1.87;;;21.50;64.80;;;;;;5042602;28;20256;-66
2023/08/31 12:50:53;;;;;;;5.68;3.78;;;21.40;65.70;;;;;;5048784;28;20192;-67